sensor_id;sensor_type;location;lat;lon;timestamp;temperature;humidity
5743;DHT22;2896;53.500;10.020;2022-07-23T00:00:57;16.60;99.90
5743;DHT22;2896;53.500;10.020;2022-07-23T00:03:23;16.60;99.90
5743;DHT22;2896;53.500;10.020;2022-07-23T00:05:50;16.60;99.90
5743;DHT22;2896;53.500;10.020;2022-07-23T00:08:16;16.60;99.90
5743;DHT22;2896;53.500;10.020;2022-07-23T00:10:44;16.60;99.90
5743;DHT22;2896;53.500;10.020;2022-07-23T00:13:11;16.60;99.90
5743;DHT22;2896;53.500;10.020;2022-07-23T00:15:37;16.50;99.90
5743;DHT22;2896;53.500;10.020;2022-07-23T00:18:04;16.60;99.90
5743;DHT22;2896;53.500;10.020;2022-07-23T00:20:31;16.50;99.90
5743;DHT22;2896;53.500;10.020;2022-07-23T00:22:58;16.50;99.90
5743;DHT22;2896;53.500;10.020;2022-07-23T00:25:26;16.50;99.90
5743;DHT22;2896;53.500;10.020;2022-07-23T00:27:54;16.40;99.90
5743;DHT22;2896;53.500;10.020;2022-07-23T00:30:21;16.50;99.90
5743;DHT22;2896;53.500;10.020;2022-07-23T00:32:48;16.50;99.90
5743;DHT22;2896;53.500;10.020;2022-07-23T00:35:15;16.50;99.90
5743;DHT22;2896;53.500;10.020;2022-07-23T00:37:42;16.50;99.90
5743;DHT22;2896;53.500;10.020;2022-07-23T00:40:10;16.40;99.90
5743;DHT22;2896;53.500;10.020;2022-07-23T00:42:37;16.40;99.90
5743;DHT22;2896;53.500;10.020;2022-07-23T00:45:06;16.40;99.90
5743;DHT22;2896;53.500;10.020;2022-07-23T00:47:33;16.50;99.90
5743;DHT22;2896;53.500;10.020;2022-07-23T00:50:01;16.50;99.90
5743;DHT22;2896;53.500;10.020;2022-07-23T00:52:27;16.40;99.90
5743;DHT22;2896;53.500;10.020;2022-07-23T00:54:54;16.30;99.90
5743;DHT22;2896;53.500;10.020;2022-07-23T00:57:21;16.30;99.90
5743;DHT22;2896;53.500;10.020;2022-07-23T00:59:47;16.30;99.90
5743;DHT22;2896;53.500;10.020;2022-07-23T01:02:15;16.30;99.90
5743;DHT22;2896;53.500;10.020;2022-07-23T01:04:42;16.30;99.90
5743;DHT22;2896;53.500;10.020;2022-07-23T01:07:09;16.20;99.90
5743;DHT22;2896;53.500;10.020;2022-07-23T01:09:36;16.20;99.90
5743;DHT22;2896;53.500;10.020;2022-07-23T01:12:04;16.20;99.90
5743;DHT22;2896;53.500;10.020;2022-07-23T01:14:30;16.20;99.90
5743;DHT22;2896;53.500;10.020;2022-07-23T01:16:57;16.10;99.90
5743;DHT22;2896;53.500;10.020;2022-07-23T01:19:25;16.10;99.90
5743;DHT22;2896;53.500;10.020;2022-07-23T01:21:53;16.00;99.90
5743;DHT22;2896;53.500;10.020;2022-07-23T01:24:21;16.00;99.90
5743;DHT22;2896;53.500;10.020;2022-07-23T01:26:49;16.00;99.90
5743;DHT22;2896;53.500;10.020;2022-07-23T01:29:16;16.10;99.90
5743;DHT22;2896;53.500;10.020;2022-07-23T01:31:43;16.10;99.90
5743;DHT22;2896;53.500;10.020;2022-07-23T01:34:10;16.10;99.90
5743;DHT22;2896;53.500;10.020;2022-07-23T01:36:37;16.00;99.90
5743;DHT22;2896;53.500;10.020;2022-07-23T01:39:04;16.10;99.90
5743;DHT22;2896;53.500;10.020;2022-07-23T01:41:33;16.10;99.90
5743;DHT22;2896;53.500;10.020;2022-07-23T01:44:00;16.00;99.90
5743;DHT22;2896;53.500;10.020;2022-07-23T01:46:26;16.10;99.90
5743;DHT22;2896;53.500;10.020;2022-07-23T01:48:53;16.10;99.90
5743;DHT22;2896;53.500;10.020;2022-07-23T01:51:20;16.10;99.90
5743;DHT22;2896;53.500;10.020;2022-07-23T01:53:46;16.10;99.90
5743;DHT22;2896;53.500;10.020;2022-07-23T01:56:13;16.10;99.90
5743;DHT22;2896;53.500;10.020;2022-07-23T01:58:42;16.10;99.90
5743;DHT22;2896;53.500;10.020;2022-07-23T02:01:08;16.20;99.90
5743;DHT22;2896;53.500;10.020;2022-07-23T02:03:35;16.10;99.90
5743;DHT22;2896;53.500;10.020;2022-07-23T02:06:02;16.10;99.90
5743;DHT22;2896;53.500;10.020;2022-07-23T02:08:29;16.00;99.90
5743;DHT22;2896;53.500;10.020;2022-07-23T02:10:55;16.00;99.90
5743;DHT22;2896;53.500;10.020;2022-07-23T02:13:22;15.90;99.90
5743;DHT22;2896;53.500;10.020;2022-07-23T02:15:50;16.00;99.90
5743;DHT22;2896;53.500;10.020;2022-07-23T02:18:17;16.00;99.90
5743;DHT22;2896;53.500;10.020;2022-07-23T02:20:44;16.00;99.90
5743;DHT22;2896;53.500;10.020;2022-07-23T02:23:10;15.90;99.90
5743;DHT22;2896;53.500;10.020;2022-07-23T02:25:37;15.90;99.90
5743;DHT22;2896;53.500;10.020;2022-07-23T02:28:03;15.80;99.90
5743;DHT22;2896;53.500;10.020;2022-07-23T02:30:30;15.70;99.90
5743;DHT22;2896;53.500;10.020;2022-07-23T02:32:58;16.50;99.90
5743;DHT22;2896;53.500;10.020;2022-07-23T02:35:25;15.70;99.90
5743;DHT22;2896;53.500;10.020;2022-07-23T02:37:51;15.50;99.90
5743;DHT22;2896;53.500;10.020;2022-07-23T02:40:18;15.50;99.90
5743;DHT22;2896;53.500;10.020;2022-07-23T02:42:45;15.50;99.90
5743;DHT22;2896;53.500;10.020;2022-07-23T02:45:12;15.50;99.90
5743;DHT22;2896;53.500;10.020;2022-07-23T02:47:39;15.40;99.90
5743;DHT22;2896;53.500;10.020;2022-07-23T02:50:08;15.40;99.90
5743;DHT22;2896;53.500;10.020;2022-07-23T02:52:34;15.30;99.90
5743;DHT22;2896;53.500;10.020;2022-07-23T02:55:01;15.30;99.90
5743;DHT22;2896;53.500;10.020;2022-07-23T02:57:27;15.30;99.90
5743;DHT22;2896;53.500;10.020;2022-07-23T02:59:54;15.20;99.90
5743;DHT22;2896;53.500;10.020;2022-07-23T03:02:21;15.20;99.90
5743;DHT22;2896;53.500;10.020;2022-07-23T03:04:47;15.20;99.90
5743;DHT22;2896;53.500;10.020;2022-07-23T03:07:16;15.10;99.90
5743;DHT22;2896;53.500;10.020;2022-07-23T03:09:43;15.10;99.90
5743;DHT22;2896;53.500;10.020;2022-07-23T03:12:10;15.00;99.90
5743;DHT22;2896;53.500;10.020;2022-07-23T03:14:36;14.90;99.90
5743;DHT22;2896;53.500;10.020;2022-07-23T03:17:03;14.90;99.90
5743;DHT22;2896;53.500;10.020;2022-07-23T03:19:30;14.90;99.90
5743;DHT22;2896;53.500;10.020;2022-07-23T03:21:56;14.80;99.90
5743;DHT22;2896;53.500;10.020;2022-07-23T03:24:24;14.80;99.90
5743;DHT22;2896;53.500;10.020;2022-07-23T03:27:11;14.80;99.90
5743;DHT22;2896;53.500;10.020;2022-07-23T03:29:38;14.80;99.90
5743;DHT22;2896;53.500;10.020;2022-07-23T03:32:05;14.80;99.90
5743;DHT22;2896;53.500;10.020;2022-07-23T03:34:31;14.90;99.90
5743;DHT22;2896;53.500;10.020;2022-07-23T03:36:58;14.90;99.90
5743;DHT22;2896;53.500;10.020;2022-07-23T03:39:26;14.90;99.90
5743;DHT22;2896;53.500;10.020;2022-07-23T03:41:53;14.90;99.90
5743;DHT22;2896;53.500;10.020;2022-07-23T03:44:19;15.00;99.90
5743;DHT22;2896;53.500;10.020;2022-07-23T03:46:46;14.90;99.90
5743;DHT22;2896;53.500;10.020;2022-07-23T03:49:12;14.90;99.90
5743;DHT22;2896;53.500;10.020;2022-07-23T03:51:39;15.00;99.90
5743;DHT22;2896;53.500;10.020;2022-07-23T03:54:06;14.90;99.90
5743;DHT22;2896;53.500;10.020;2022-07-23T03:56:34;15.00;99.90
5743;DHT22;2896;53.500;10.020;2022-07-23T03:59:01;15.00;99.90
5743;DHT22;2896;53.500;10.020;2022-07-23T04:01:27;15.00;99.90
5743;DHT22;2896;53.500;10.020;2022-07-23T04:03:54;15.10;99.90
5743;DHT22;2896;53.500;10.020;2022-07-23T04:06:20;15.10;99.90
5743;DHT22;2896;53.500;10.020;2022-07-23T04:08:47;15.30;99.90
5743;DHT22;2896;53.500;10.020;2022-07-23T04:11:14;15.40;99.90
5743;DHT22;2896;53.500;10.020;2022-07-23T04:13:42;15.50;99.90
5743;DHT22;2896;53.500;10.020;2022-07-23T04:16:08;15.70;99.90
5743;DHT22;2896;53.500;10.020;2022-07-23T04:18:35;15.80;99.90
5743;DHT22;2896;53.500;10.020;2022-07-23T04:21:02;15.80;99.90
5743;DHT22;2896;53.500;10.020;2022-07-23T04:23:28;15.90;99.90
5743;DHT22;2896;53.500;10.020;2022-07-23T04:25:55;15.90;99.90
5743;DHT22;2896;53.500;10.020;2022-07-23T04:28:21;15.90;99.90
5743;DHT22;2896;53.500;10.020;2022-07-23T04:30:49;15.80;99.90
5743;DHT22;2896;53.500;10.020;2022-07-23T04:33:16;15.90;99.90
5743;DHT22;2896;53.500;10.020;2022-07-23T04:35:43;15.80;99.90
5743;DHT22;2896;53.500;10.020;2022-07-23T04:38:09;15.80;99.90
5743;DHT22;2896;53.500;10.020;2022-07-23T04:40:36;15.80;99.90
5743;DHT22;2896;53.500;10.020;2022-07-23T04:43:03;15.80;99.90
5743;DHT22;2896;53.500;10.020;2022-07-23T04:45:30;15.80;99.90
5743;DHT22;2896;53.500;10.020;2022-07-23T04:47:58;15.80;99.90
5743;DHT22;2896;53.500;10.020;2022-07-23T04:50:25;15.60;99.90
5743;DHT22;2896;53.500;10.020;2022-07-23T04:52:51;15.60;99.90
5743;DHT22;2896;53.500;10.020;2022-07-23T04:55:18;15.50;99.90
5743;DHT22;2896;53.500;10.020;2022-07-23T04:57:44;15.60;99.90
5743;DHT22;2896;53.500;10.020;2022-07-23T05:00:12;15.60;99.90
5743;DHT22;2896;53.500;10.020;2022-07-23T05:02:38;15.60;99.90
5743;DHT22;2896;53.500;10.020;2022-07-23T05:05:07;15.60;99.90
5743;DHT22;2896;53.500;10.020;2022-07-23T05:07:34;15.70;99.90
5743;DHT22;2896;53.500;10.020;2022-07-23T05:10:00;15.70;99.90
5743;DHT22;2896;53.500;10.020;2022-07-23T05:12:27;15.70;99.90
5743;DHT22;2896;53.500;10.020;2022-07-23T05:14:53;15.80;99.90
5743;DHT22;2896;53.500;10.020;2022-07-23T05:17:20;15.80;99.90
5743;DHT22;2896;53.500;10.020;2022-07-23T05:19:47;15.80;99.90
5743;DHT22;2896;53.500;10.020;2022-07-23T05:22:14;15.80;99.90
5743;DHT22;2896;53.500;10.020;2022-07-23T05:24:41;15.90;99.90
5743;DHT22;2896;53.500;10.020;2022-07-23T05:27:08;15.90;99.90
5743;DHT22;2896;53.500;10.020;2022-07-23T05:29:35;15.90;99.90
5743;DHT22;2896;53.500;10.020;2022-07-23T05:32:01;16.00;99.90
5743;DHT22;2896;53.500;10.020;2022-07-23T05:34:28;16.00;99.90
5743;DHT22;2896;53.500;10.020;2022-07-23T05:36:55;16.10;99.90
5743;DHT22;2896;53.500;10.020;2022-07-23T05:39:23;16.10;99.90
5743;DHT22;2896;53.500;10.020;2022-07-23T05:41:49;16.10;99.90
5743;DHT22;2896;53.500;10.020;2022-07-23T05:44:16;16.20;99.90
5743;DHT22;2896;53.500;10.020;2022-07-23T05:46:42;16.30;99.90
5743;DHT22;2896;53.500;10.020;2022-07-23T05:49:09;16.40;99.90
5743;DHT22;2896;53.500;10.020;2022-07-23T05:51:36;16.50;99.90
5743;DHT22;2896;53.500;10.020;2022-07-23T05:54:03;16.50;99.90
5743;DHT22;2896;53.500;10.020;2022-07-23T05:56:31;16.40;99.90
5743;DHT22;2896;53.500;10.020;2022-07-23T05:58:57;16.50;99.90
5743;DHT22;2896;53.500;10.020;2022-07-23T06:01:24;16.50;99.90
5743;DHT22;2896;53.500;10.020;2022-07-23T06:03:51;16.50;99.90
5743;DHT22;2896;53.500;10.020;2022-07-23T06:06:17;16.40;99.90
5743;DHT22;2896;53.500;10.020;2022-07-23T06:08:44;16.30;99.90
5743;DHT22;2896;53.500;10.020;2022-07-23T06:11:11;16.30;99.90
5743;DHT22;2896;53.500;10.020;2022-07-23T06:13:39;16.30;99.90
5743;DHT22;2896;53.500;10.020;2022-07-23T06:16:05;16.40;99.90
5743;DHT22;2896;53.500;10.020;2022-07-23T06:18:32;16.40;99.90
5743;DHT22;2896;53.500;10.020;2022-07-23T06:20:59;16.50;99.90
5743;DHT22;2896;53.500;10.020;2022-07-23T06:23:26;18.00;99.90
5743;DHT22;2896;53.500;10.020;2022-07-23T06:25:52;16.70;99.90
5743;DHT22;2896;53.500;10.020;2022-07-23T06:28:19;16.80;99.90
5743;DHT22;2896;53.500;10.020;2022-07-23T06:30:47;17.00;99.90
5743;DHT22;2896;53.500;10.020;2022-07-23T06:33:14;17.20;99.90
5743;DHT22;2896;53.500;10.020;2022-07-23T06:35:41;17.40;99.90
5743;DHT22;2896;53.500;10.020;2022-07-23T06:38:08;17.40;99.90
5743;DHT22;2896;53.500;10.020;2022-07-23T06:40:34;17.50;99.90
5743;DHT22;2896;53.500;10.020;2022-07-23T06:43:01;17.40;99.90
5743;DHT22;2896;53.500;10.020;2022-07-23T06:45:28;17.60;99.90
5743;DHT22;2896;53.500;10.020;2022-07-23T06:47:56;17.70;99.90
5743;DHT22;2896;53.500;10.020;2022-07-23T06:50:23;17.90;99.90
5743;DHT22;2896;53.500;10.020;2022-07-23T06:52:49;17.90;99.90
5743;DHT22;2896;53.500;10.020;2022-07-23T06:55:16;18.00;99.90
5743;DHT22;2896;53.500;10.020;2022-07-23T06:57:42;18.00;99.90
5743;DHT22;2896;53.500;10.020;2022-07-23T07:00:10;17.90;99.90
5743;DHT22;2896;53.500;10.020;2022-07-23T07:02:37;18.00;99.90
5743;DHT22;2896;53.500;10.020;2022-07-23T07:05:06;18.00;99.90
5743;DHT22;2896;53.500;10.020;2022-07-23T07:07:33;19.30;99.90
5743;DHT22;2896;53.500;10.020;2022-07-23T07:09:59;18.10;99.90
5743;DHT22;2896;53.500;10.020;2022-07-23T07:12:26;18.20;99.90
5743;DHT22;2896;53.500;10.020;2022-07-23T07:14:53;18.40;99.90
5743;DHT22;2896;53.500;10.020;2022-07-23T07:17:19;18.30;99.90
5743;DHT22;2896;53.500;10.020;2022-07-23T07:19:46;18.40;99.90
5743;DHT22;2896;53.500;10.020;2022-07-23T07:22:14;18.40;99.90
5743;DHT22;2896;53.500;10.020;2022-07-23T07:24:41;18.40;99.90
5743;DHT22;2896;53.500;10.020;2022-07-23T07:27:07;18.60;99.90
5743;DHT22;2896;53.500;10.020;2022-07-23T07:29:34;18.50;99.90
5743;DHT22;2896;53.500;10.020;2022-07-23T07:32:01;18.60;99.90
5743;DHT22;2896;53.500;10.020;2022-07-23T07:34:27;18.60;99.90
5743;DHT22;2896;53.500;10.020;2022-07-23T07:36:54;18.70;99.90
5743;DHT22;2896;53.500;10.020;2022-07-23T07:39:22;18.80;99.90
5743;DHT22;2896;53.500;10.020;2022-07-23T07:41:49;18.50;99.90
5743;DHT22;2896;53.500;10.020;2022-07-23T07:44:16;18.60;99.90
5743;DHT22;2896;53.500;10.020;2022-07-23T07:46:45;18.30;99.90
5743;DHT22;2896;53.500;10.020;2022-07-23T07:49:12;18.70;99.90
5743;DHT22;2896;53.500;10.020;2022-07-23T07:51:42;18.90;99.90
5743;DHT22;2896;53.500;10.020;2022-07-23T07:54:09;19.00;99.90
5743;DHT22;2896;53.500;10.020;2022-07-23T07:56:37;19.00;99.90
5743;DHT22;2896;53.500;10.020;2022-07-23T07:59:03;19.20;99.90
5743;DHT22;2896;53.500;10.020;2022-07-23T08:01:30;19.50;99.90
5743;DHT22;2896;53.500;10.020;2022-07-23T08:03:57;19.70;99.90
5743;DHT22;2896;53.500;10.020;2022-07-23T08:06:23;19.80;99.90
5743;DHT22;2896;53.500;10.020;2022-07-23T08:08:50;20.10;99.90
5743;DHT22;2896;53.500;10.020;2022-07-23T08:11:17;20.20;99.90
5743;DHT22;2896;53.500;10.020;2022-07-23T08:13:45;19.90;99.90
5743;DHT22;2896;53.500;10.020;2022-07-23T08:16:11;19.80;99.90
5743;DHT22;2896;53.500;10.020;2022-07-23T08:18:38;19.70;99.90
5743;DHT22;2896;53.500;10.020;2022-07-23T08:21:05;19.40;99.90
5743;DHT22;2896;53.500;10.020;2022-07-23T08:23:31;19.20;99.90
5743;DHT22;2896;53.500;10.020;2022-07-23T08:25:58;19.30;99.90
5743;DHT22;2896;53.500;10.020;2022-07-23T08:28:26;19.60;99.90
5743;DHT22;2896;53.500;10.020;2022-07-23T08:30:54;19.70;99.90
5743;DHT22;2896;53.500;10.020;2022-07-23T08:33:21;19.50;99.90
5743;DHT22;2896;53.500;10.020;2022-07-23T08:35:49;19.30;99.90
5743;DHT22;2896;53.500;10.020;2022-07-23T08:38:19;19.00;99.90
5743;DHT22;2896;53.500;10.020;2022-07-23T08:40:48;18.70;99.90
5743;DHT22;2896;53.500;10.020;2022-07-23T08:43:16;18.60;99.90
5743;DHT22;2896;53.500;10.020;2022-07-23T08:45:45;18.40;99.90
5743;DHT22;2896;53.500;10.020;2022-07-23T08:48:14;18.50;99.90
5743;DHT22;2896;53.500;10.020;2022-07-23T08:50:44;18.50;99.90
5743;DHT22;2896;53.500;10.020;2022-07-23T08:53:11;18.60;99.90
5743;DHT22;2896;53.500;10.020;2022-07-23T08:55:38;18.80;99.90
5743;DHT22;2896;53.500;10.020;2022-07-23T08:58:04;19.20;99.90
5743;DHT22;2896;53.500;10.020;2022-07-23T09:00:32;19.50;99.90
5743;DHT22;2896;53.500;10.020;2022-07-23T09:02:58;19.60;99.90
5743;DHT22;2896;53.500;10.020;2022-07-23T09:05:26;19.60;99.90
5743;DHT22;2896;53.500;10.020;2022-07-23T09:08:10;19.80;99.90
5743;DHT22;2896;53.500;10.020;2022-07-23T09:10:50;20.90;99.90
5743;DHT22;2896;53.500;10.020;2022-07-23T09:13:25;20.40;99.90
5743;DHT22;2896;53.500;10.020;2022-07-23T09:15:53;20.60;99.90
5743;DHT22;2896;53.500;10.020;2022-07-23T09:18:28;20.80;99.90
5743;DHT22;2896;53.500;10.020;2022-07-23T09:21:07;21.10;99.90
5743;DHT22;2896;53.500;10.020;2022-07-23T09:23:39;21.10;99.90
5743;DHT22;2896;53.500;10.020;2022-07-23T09:26:21;21.20;99.90
5743;DHT22;2896;53.500;10.020;2022-07-23T09:28:54;21.20;99.90
5743;DHT22;2896;53.500;10.020;2022-07-23T09:31:23;21.40;99.90
5743;DHT22;2896;53.500;10.020;2022-07-23T09:33:50;21.20;99.90
5743;DHT22;2896;53.500;10.020;2022-07-23T09:36:27;21.60;99.90
5743;DHT22;2896;53.500;10.020;2022-07-23T09:38:53;21.80;99.90
5743;DHT22;2896;53.500;10.020;2022-07-23T09:41:20;21.70;99.90
5743;DHT22;2896;53.500;10.020;2022-07-23T09:43:54;21.70;99.90
5743;DHT22;2896;53.500;10.020;2022-07-23T09:46:22;22.00;99.90
5743;DHT22;2896;53.500;10.020;2022-07-23T09:48:50;22.50;99.90
5743;DHT22;2896;53.500;10.020;2022-07-23T09:51:17;22.70;99.90
5743;DHT22;2896;53.500;10.020;2022-07-23T09:53:48;22.40;99.90
5743;DHT22;2896;53.500;10.020;2022-07-23T09:56:14;22.40;99.90
5743;DHT22;2896;53.500;10.020;2022-07-23T09:58:41;22.40;99.90
5743;DHT22;2896;53.500;10.020;2022-07-23T10:01:13;22.30;99.90
5743;DHT22;2896;53.500;10.020;2022-07-23T10:03:41;22.20;99.90
5743;DHT22;2896;53.500;10.020;2022-07-23T10:06:08;22.30;99.90
5743;DHT22;2896;53.500;10.020;2022-07-23T10:08:35;21.90;99.90
5743;DHT22;2896;53.500;10.020;2022-07-23T10:11:04;22.10;99.90
5743;DHT22;2896;53.500;10.020;2022-07-23T10:13:32;22.10;99.90
5743;DHT22;2896;53.500;10.020;2022-07-23T10:16:20;21.90;99.90
5743;DHT22;2896;53.500;10.020;2022-07-23T10:18:47;21.70;99.90
5743;DHT22;2896;53.500;10.020;2022-07-23T10:21:18;21.40;99.90
5743;DHT22;2896;53.500;10.020;2022-07-23T10:23:51;21.20;99.90
5743;DHT22;2896;53.500;10.020;2022-07-23T10:26:30;21.20;99.90
5743;DHT22;2896;53.500;10.020;2022-07-23T10:29:09;21.30;99.90
5743;DHT22;2896;53.500;10.020;2022-07-23T10:31:47;21.70;99.90
5743;DHT22;2896;53.500;10.020;2022-07-23T10:34:19;21.60;99.90
5743;DHT22;2896;53.500;10.020;2022-07-23T10:36:50;22.00;99.90
5743;DHT22;2896;53.500;10.020;2022-07-23T10:39:22;21.90;99.90
5743;DHT22;2896;53.500;10.020;2022-07-23T10:41:51;22.50;99.90
5743;DHT22;2896;53.500;10.020;2022-07-23T10:44:20;23.10;99.90
5743;DHT22;2896;53.500;10.020;2022-07-23T10:47:00;23.70;99.90
5743;DHT22;2896;53.500;10.020;2022-07-23T10:49:53;24.50;99.90
5743;DHT22;2896;53.500;10.020;2022-07-23T10:52:22;24.70;99.90
5743;DHT22;2896;53.500;10.020;2022-07-23T10:54:52;24.10;99.90
5743;DHT22;2896;53.500;10.020;2022-07-23T10:57:21;24.00;99.90
5743;DHT22;2896;53.500;10.020;2022-07-23T11:00:15;24.30;99.90
5743;DHT22;2896;53.500;10.020;2022-07-23T11:02:44;24.90;99.90
5743;DHT22;2896;53.500;10.020;2022-07-23T11:05:13;25.20;99.90
5743;DHT22;2896;53.500;10.020;2022-07-23T11:08:11;25.00;99.90
5743;DHT22;2896;53.500;10.020;2022-07-23T11:10:41;25.60;99.90
5743;DHT22;2896;53.500;10.020;2022-07-23T11:13:36;25.60;99.90
5743;DHT22;2896;53.500;10.020;2022-07-23T11:16:25;25.30;99.90
5743;DHT22;2896;53.500;10.020;2022-07-23T11:19:10;24.70;99.90
5743;DHT22;2896;53.500;10.020;2022-07-23T11:21:47;24.10;99.90
5743;DHT22;2896;53.500;10.020;2022-07-23T11:24:17;23.70;99.90
5743;DHT22;2896;53.500;10.020;2022-07-23T11:29:47;23.90;99.90
5743;DHT22;2896;53.500;10.020;2022-07-23T11:32:24;24.10;99.90
5743;DHT22;2896;53.500;10.020;2022-07-23T11:34:52;24.10;99.90
5743;DHT22;2896;53.500;10.020;2022-07-23T11:37:43;24.10;99.90
5743;DHT22;2896;53.500;10.020;2022-07-23T11:40:12;24.20;99.90
5743;DHT22;2896;53.500;10.020;2022-07-23T11:42:39;24.50;99.90
5743;DHT22;2896;53.500;10.020;2022-07-23T11:45:09;23.90;99.90
5743;DHT22;2896;53.500;10.020;2022-07-23T11:47:35;23.80;99.90
5743;DHT22;2896;53.500;10.020;2022-07-23T11:50:05;24.30;99.90
5743;DHT22;2896;53.500;10.020;2022-07-23T11:52:32;24.00;99.90
5743;DHT22;2896;53.500;10.020;2022-07-23T11:55:00;23.50;99.90
5743;DHT22;2896;53.500;10.020;2022-07-23T11:57:28;23.30;99.90
5743;DHT22;2896;53.500;10.020;2022-07-23T11:59:57;23.10;99.90
5743;DHT22;2896;53.500;10.020;2022-07-23T12:02:26;22.70;99.90
5743;DHT22;2896;53.500;10.020;2022-07-23T12:04:53;22.70;99.90
5743;DHT22;2896;53.500;10.020;2022-07-23T12:07:28;22.70;99.90
5743;DHT22;2896;53.500;10.020;2022-07-23T12:09:56;22.60;99.90
5743;DHT22;2896;53.500;10.020;2022-07-23T12:12:24;22.30;99.90
5743;DHT22;2896;53.500;10.020;2022-07-23T12:14:52;22.10;99.90
5743;DHT22;2896;53.500;10.020;2022-07-23T12:17:19;22.00;99.90
5743;DHT22;2896;53.500;10.020;2022-07-23T12:19:48;22.00;99.90
5743;DHT22;2896;53.500;10.020;2022-07-23T12:22:15;22.10;99.90
5743;DHT22;2896;53.500;10.020;2022-07-23T12:24:56;22.50;99.90
5743;DHT22;2896;53.500;10.020;2022-07-23T12:27:23;22.50;99.90
5743;DHT22;2896;53.500;10.020;2022-07-23T12:29:51;22.50;99.90
5743;DHT22;2896;53.500;10.020;2022-07-23T12:32:23;22.50;99.90
5743;DHT22;2896;53.500;10.020;2022-07-23T12:35:03;22.40;99.90
5743;DHT22;2896;53.500;10.020;2022-07-23T12:37:32;22.40;99.90
5743;DHT22;2896;53.500;10.020;2022-07-23T12:40:18;22.30;99.90
5743;DHT22;2896;53.500;10.020;2022-07-23T12:42:45;22.40;99.90
5743;DHT22;2896;53.500;10.020;2022-07-23T12:45:12;22.20;99.90
5743;DHT22;2896;53.500;10.020;2022-07-23T12:47:58;22.70;99.90
5743;DHT22;2896;53.500;10.020;2022-07-23T12:50:38;23.10;99.90
5743;DHT22;2896;53.500;10.020;2022-07-23T12:53:07;23.30;99.90
5743;DHT22;2896;53.500;10.020;2022-07-23T12:55:34;23.50;99.90
5743;DHT22;2896;53.500;10.020;2022-07-23T12:58:06;24.10;99.90
5743;DHT22;2896;53.500;10.020;2022-07-23T13:00:51;24.70;99.90
5743;DHT22;2896;53.500;10.020;2022-07-23T13:03:23;24.80;99.90
5743;DHT22;2896;53.500;10.020;2022-07-23T13:05:52;24.80;99.90
5743;DHT22;2896;53.500;10.020;2022-07-23T13:08:19;24.40;99.90
5743;DHT22;2896;53.500;10.020;2022-07-23T13:10:46;23.80;99.90
5743;DHT22;2896;53.500;10.020;2022-07-23T13:13:14;23.60;99.90
5743;DHT22;2896;53.500;10.020;2022-07-23T13:15:41;23.60;99.90
5743;DHT22;2896;53.500;10.020;2022-07-23T13:18:07;24.00;99.90
5743;DHT22;2896;53.500;10.020;2022-07-23T13:20:34;24.00;99.90
5743;DHT22;2896;53.500;10.020;2022-07-23T13:23:03;24.20;99.90
5743;DHT22;2896;53.500;10.020;2022-07-23T13:25:29;23.80;99.90
5743;DHT22;2896;53.500;10.020;2022-07-23T13:27:56;23.80;99.90
5743;DHT22;2896;53.500;10.020;2022-07-23T13:30:22;24.00;99.90
5743;DHT22;2896;53.500;10.020;2022-07-23T13:32:49;23.80;99.90
5743;DHT22;2896;53.500;10.020;2022-07-23T13:35:16;24.20;99.90
5743;DHT22;2896;53.500;10.020;2022-07-23T13:37:42;24.10;99.90
5743;DHT22;2896;53.500;10.020;2022-07-23T13:40:11;24.50;99.90
5743;DHT22;2896;53.500;10.020;2022-07-23T13:42:38;25.00;99.90
5743;DHT22;2896;53.500;10.020;2022-07-23T13:45:06;24.90;99.90
5743;DHT22;2896;53.500;10.020;2022-07-23T13:47:33;24.80;99.90
5743;DHT22;2896;53.500;10.020;2022-07-23T13:50:00;24.50;99.90
5743;DHT22;2896;53.500;10.020;2022-07-23T13:52:26;24.30;99.90
5743;DHT22;2896;53.500;10.020;2022-07-23T13:54:53;24.60;99.90
5743;DHT22;2896;53.500;10.020;2022-07-23T13:57:21;25.10;99.90
5743;DHT22;2896;53.500;10.020;2022-07-23T13:59:48;25.40;99.90
5743;DHT22;2896;53.500;10.020;2022-07-23T14:02:15;25.40;99.90
5743;DHT22;2896;53.500;10.020;2022-07-23T14:04:43;25.60;99.90
5743;DHT22;2896;53.500;10.020;2022-07-23T14:07:10;25.30;99.90
5743;DHT22;2896;53.500;10.020;2022-07-23T14:09:37;26.20;99.90
5743;DHT22;2896;53.500;10.020;2022-07-23T14:12:04;25.50;99.90
5743;DHT22;2896;53.500;10.020;2022-07-23T14:14:32;25.70;99.90
5743;DHT22;2896;53.500;10.020;2022-07-23T14:16:59;25.30;99.90
5743;DHT22;2896;53.500;10.020;2022-07-23T14:19:25;24.90;99.90
5743;DHT22;2896;53.500;10.020;2022-07-23T14:21:52;25.10;99.90
5743;DHT22;2896;53.500;10.020;2022-07-23T14:24:19;25.50;99.90
5743;DHT22;2896;53.500;10.020;2022-07-23T14:26:45;25.00;99.90
5743;DHT22;2896;53.500;10.020;2022-07-23T14:29:12;25.10;99.90
5743;DHT22;2896;53.500;10.020;2022-07-23T14:31:41;25.30;99.90
5743;DHT22;2896;53.500;10.020;2022-07-23T14:34:08;25.30;99.90
5743;DHT22;2896;53.500;10.020;2022-07-23T14:36:35;25.50;99.90
5743;DHT22;2896;53.500;10.020;2022-07-23T14:39:01;25.40;99.90
5743;DHT22;2896;53.500;10.020;2022-07-23T14:41:28;25.80;99.90
5743;DHT22;2896;53.500;10.020;2022-07-23T14:43:55;26.10;99.90
5743;DHT22;2896;53.500;10.020;2022-07-23T14:46:22;26.00;99.90
5743;DHT22;2896;53.500;10.020;2022-07-23T14:48:50;26.00;99.90
5743;DHT22;2896;53.500;10.020;2022-07-23T14:51:16;25.60;99.90
5743;DHT22;2896;53.500;10.020;2022-07-23T14:53:43;25.60;99.90
5743;DHT22;2896;53.500;10.020;2022-07-23T14:56:09;24.90;99.90
5743;DHT22;2896;53.500;10.020;2022-07-23T14:58:36;24.70;99.90
5743;DHT22;2896;53.500;10.020;2022-07-23T15:01:03;24.70;99.90
5743;DHT22;2896;53.500;10.020;2022-07-23T15:03:29;24.70;99.90
5743;DHT22;2896;53.500;10.020;2022-07-23T15:05:58;25.20;99.90
5743;DHT22;2896;53.500;10.020;2022-07-23T15:08:25;25.10;99.90
5743;DHT22;2896;53.500;10.020;2022-07-23T15:10:52;26.00;99.90
5743;DHT22;2896;53.500;10.020;2022-07-23T15:13:18;26.00;99.90
5743;DHT22;2896;53.500;10.020;2022-07-23T15:15:45;25.20;99.90
5743;DHT22;2896;53.500;10.020;2022-07-23T15:18:11;24.90;99.90
5743;DHT22;2896;53.500;10.020;2022-07-23T15:20:38;24.50;99.90
5743;DHT22;2896;53.500;10.020;2022-07-23T15:23:06;24.50;99.90
5743;DHT22;2896;53.500;10.020;2022-07-23T15:25:35;24.40;99.90
5743;DHT22;2896;53.500;10.020;2022-07-23T15:28:02;24.60;99.90
5743;DHT22;2896;53.500;10.020;2022-07-23T15:30:29;24.70;99.90
5743;DHT22;2896;53.500;10.020;2022-07-23T15:32:56;25.20;99.90
5743;DHT22;2896;53.500;10.020;2022-07-23T15:35:23;26.00;99.90
5743;DHT22;2896;53.500;10.020;2022-07-23T15:37:50;25.40;99.90
5743;DHT22;2896;53.500;10.020;2022-07-23T15:40:17;25.00;99.90
5743;DHT22;2896;53.500;10.020;2022-07-23T15:42:44;25.30;99.90
5743;DHT22;2896;53.500;10.020;2022-07-23T15:45:11;25.00;99.90
5743;DHT22;2896;53.500;10.020;2022-07-23T15:47:38;24.80;99.90
5743;DHT22;2896;53.500;10.020;2022-07-23T15:50:07;25.40;99.90
5743;DHT22;2896;53.500;10.020;2022-07-23T15:52:34;25.40;99.90
5743;DHT22;2896;53.500;10.020;2022-07-23T15:55:01;25.40;99.90